Foothills Regional Airport


Codes: KMRN/
Name: Foothills Regional Airport
City: Morganton
Country: United States
Elevation: 1270 ft.

Photos at Foothills Regional Airport


   Photos courtesy of SpottingLog. You can add your own sightings and photos by signing up for a free trial today.



No photos found.

Weather at Foothills Regional Airport


Time (UTC)DescriptionTempratureWindCloud coverageVisibilityPressureHumidity
26-Jun-2024 00:00Clear Sky32°C2 mph, SE0%10000m1014hPa41%
26-Jun-2024 03:00Clear Sky29°C2 mph, NW2%10000m1014hPa48%
26-Jun-2024 06:00Clear Sky25°C2 mph, W2%10000m1014hPa58%
26-Jun-2024 09:00Scattered Clouds20°C2 mph, W49%10000m1013hPa68%
26-Jun-2024 12:00Broken Clouds23°C2 mph, NW58%10000m1014hPa63%
26-Jun-2024 15:00Scattered Clouds32°C2 mph, S49%10000m1012hPa36%
26-Jun-2024 18:00Scattered Clouds36°C7 mph, SW30%10000m1010hPa25%
26-Jun-2024 21:00Clear Sky37°C7 mph, SW4%10000m1006hPa21%
27-Jun-2024 00:00Clear Sky29°C7 mph, S8%10000m1006hPa47%
27-Jun-2024 03:00Broken Clouds24°C2 mph, W84%10000m1008hPa63%
27-Jun-2024 06:00Broken Clouds22°C4 mph, N80%10000m1008hPa69%
27-Jun-2024 09:00Overcast Clouds22°C2 mph, NW100%10000m1008hPa73%
27-Jun-2024 12:00Overcast Clouds23°C0 mph, SE100%10000m1010hPa77%
27-Jun-2024 15:00Broken Clouds31°C2 mph, SE81%10000m1010hPa47%
27-Jun-2024 18:00Light Rain33°C4 mph, N53%10000m1009hPa44%
27-Jun-2024 21:00Light Rain29°C2 mph, SE89%10000m1009hPa58%
28-Jun-2024 00:00Broken Clouds27°C2 mph, E74%10000m1010hPa69%
28-Jun-2024 03:00Overcast Clouds25°C2 mph, N90%10000m1012hPa71%
28-Jun-2024 06:00Overcast Clouds23°C2 mph, E87%10000m1012hPa78%
28-Jun-2024 09:00Overcast Clouds21°C4 mph, N85%10000m1014hPa88%
28-Jun-2024 12:00Overcast Clouds23°C2 mph, NE85%10000m1015hPa81%
28-Jun-2024 15:00Few Clouds30°C4 mph, E12%10000m1015hPa55%
28-Jun-2024 18:00Light Rain31°C2 mph, NW28%10000m1015hPa59%
28-Jun-2024 21:00Light Rain29°C4 mph, SE99%10000m1013hPa64%
29-Jun-2024 00:00Overcast Clouds27°C2 mph, N91%10000m1015hPa73%
29-Jun-2024 03:00Overcast Clouds24°C2 mph, N95%10000m1016hPa78%
29-Jun-2024 06:00Overcast Clouds23°C2 mph, N98%10000m1017hPa83%
29-Jun-2024 09:00Overcast Clouds22°C2 mph, N96%10000m1017hPa92%
29-Jun-2024 12:00Overcast Clouds24°C0 mph, N96%10000m1019hPa81%
29-Jun-2024 15:00Light Rain30°C4 mph, S86%10000m1019hPa63%
29-Jun-2024 18:00Light Rain33°C7 mph, SW93%10000m1017hPa47%
29-Jun-2024 21:00Light Rain33°C2 mph, W100%10000m1016hPa46%
30-Jun-2024 00:00Light Rain28°C4 mph, W100%10000m1017hPa68%
30-Jun-2024 03:00Light Rain23°C4 mph, NW100%10000m1018hPa92%
30-Jun-2024 06:00Light Rain22°C2 mph, NW99%10000m1018hPa95%
30-Jun-2024 09:00Light Rain22°C2 mph, NW100%10000m1018hPa96%
30-Jun-2024 12:00Light Rain22°C2 mph, W100%10000m1019hPa96%
30-Jun-2024 15:00Light Rain23°C2 mph, W100%10000m1020hPa97%
30-Jun-2024 18:00Light Rain26°C2 mph, SW100%10000m1019hPa80%
30-Jun-2024 21:00Light Rain32°C2 mph, S78%10000m1016hPa54%